createdAt,value
2023-04-11T00:00:22.540Z,25.54
2023-04-11T00:00:52.957Z,25.54
2023-04-11T00:01:23.376Z,25.55
2023-04-11T00:01:53.897Z,25.54
2023-04-11T00:02:24.428Z,25.50
2023-04-11T00:02:55.218Z,25.52
2023-04-11T00:03:25.922Z,25.56
2023-04-11T00:03:56.605Z,25.56
2023-04-11T00:04:27.173Z,25.54
2023-04-11T00:04:57.649Z,25.52
2023-04-11T00:05:28.040Z,25.52
2023-04-11T00:05:58.457Z,25.52
2023-04-11T00:06:28.884Z,25.54
2023-04-11T00:06:59.329Z,25.52
2023-04-11T00:07:29.744Z,25.52
2023-04-11T00:08:00.161Z,25.52
2023-04-11T00:08:30.584Z,25.53
2023-04-11T00:09:01.019Z,25.52
2023-04-11T00:09:31.435Z,25.55
2023-04-11T00:10:01.877Z,25.52
2023-04-11T00:10:32.303Z,25.50
2023-04-11T00:11:02.721Z,25.47
2023-04-11T00:11:33.142Z,25.46
2023-04-11T00:12:03.564Z,25.45
2023-04-11T00:12:33.990Z,25.44
2023-04-11T00:13:04.430Z,25.45
2023-04-11T00:13:34.831Z,25.47
2023-04-11T00:14:05.262Z,25.48
2023-04-11T00:14:35.679Z,25.46
2023-04-11T00:15:06.111Z,25.47
2023-04-11T00:15:36.541Z,25.49
2023-04-11T00:16:07.044Z,25.48
2023-04-11T00:16:37.480Z,25.50
2023-04-11T00:17:07.861Z,25.47
2023-04-11T00:17:38.471Z,25.44
2023-04-11T00:18:08.863Z,25.46
2023-04-11T00:18:39.298Z,25.45
2023-04-11T00:19:09.709Z,25.46
2023-04-11T00:19:40.168Z,25.46
2023-04-11T00:20:10.587Z,25.48
2023-04-11T00:20:41.005Z,25.49
2023-04-11T00:21:11.424Z,25.49
2023-04-11T00:21:41.847Z,25.49
2023-04-11T00:22:12.266Z,25.53
2023-04-11T00:22:42.686Z,25.52
2023-04-11T00:23:13.107Z,25.52
2023-04-11T00:23:43.528Z,25.56
2023-04-11T00:24:13.965Z,25.56
2023-04-11T00:24:44.392Z,25.56
2023-04-11T00:25:14.863Z,25.57
2023-04-11T00:25:45.252Z,25.58
2023-04-11T00:26:15.674Z,25.56
2023-04-11T00:26:46.095Z,25.54
2023-04-11T00:27:16.519Z,25.52
2023-04-11T00:27:46.940Z,25.52
2023-04-11T00:28:17.372Z,25.53
2023-04-11T00:28:47.798Z,25.54
2023-04-11T00:29:18.220Z,25.50
2023-04-11T00:29:48.649Z,25.54
2023-04-11T00:30:19.083Z,25.56
2023-04-11T00:30:49.504Z,25.56
2023-04-11T00:31:19.957Z,25.53
2023-04-11T00:31:50.359Z,25.50
2023-04-11T00:32:20.770Z,25.50
2023-04-11T00:32:51.306Z,25.52
2023-04-11T00:33:21.755Z,25.54
2023-04-11T00:33:52.185Z,25.50
2023-04-11T00:34:22.594Z,25.52
2023-04-11T00:34:53.035Z,25.48
2023-04-11T00:35:23.450Z,25.49
2023-04-11T00:35:54.122Z,25.47
2023-04-11T00:36:24.580Z,25.45
2023-04-11T00:36:55.129Z,25.43
2023-04-11T00:37:25.522Z,25.41
2023-04-11T00:37:55.953Z,25.45
2023-04-11T00:38:26.353Z,25.46
2023-04-11T00:38:57.005Z,25.44
2023-04-11T00:39:27.501Z,25.42
2023-04-11T00:39:57.973Z,25.41
2023-04-11T00:40:28.406Z,25.41
2023-04-11T00:40:58.834Z,25.39
2023-04-11T00:41:29.252Z,25.39
2023-04-11T00:41:59.675Z,25.39
2023-04-11T00:42:30.104Z,25.42
2023-04-11T00:43:00.525Z,25.41
2023-04-11T00:43:30.947Z,25.43
2023-04-11T00:44:01.365Z,25.46
2023-04-11T00:44:31.785Z,25.46
2023-04-11T00:45:02.234Z,25.48
2023-04-11T00:45:32.665Z,25.49
2023-04-11T00:46:03.176Z,25.48
2023-04-11T00:46:33.557Z,25.49
2023-04-11T00:47:03.988Z,25.47
2023-04-11T00:47:34.442Z,25.49
2023-04-11T00:48:04.873Z,25.50
2023-04-11T00:48:35.283Z,25.50
2023-04-11T00:49:05.731Z,25.50
2023-04-11T00:49:36.121Z,25.50
2023-04-11T00:50:06.592Z,25.51
2023-04-11T00:50:36.986Z,25.54
2023-04-11T00:51:07.410Z,25.54
2023-04-11T00:51:37.834Z,25.50
2023-04-11T00:52:08.249Z,25.46
2023-04-11T00:52:38.669Z,25.44
2023-04-11T00:53:09.097Z,25.43
2023-04-11T00:53:39.508Z,25.46
2023-04-11T00:54:09.941Z,25.45
2023-04-11T00:54:40.357Z,25.44
2023-04-11T00:55:10.774Z,25.44
2023-04-11T00:55:41.237Z,25.44
2023-04-11T00:56:11.654Z,25.43
2023-04-11T00:56:42.074Z,25.42
2023-04-11T00:57:12.498Z,25.43
2023-04-11T00:57:42.929Z,25.45
2023-04-11T00:58:13.344Z,25.46
2023-04-11T00:58:43.767Z,25.46
2023-04-11T00:59:14.210Z,25.46
2023-04-11T00:59:44.641Z,25.46
2023-04-11T01:00:15.077Z,25.47
2023-04-11T01:00:45.517Z,25.47
2023-04-11T01:01:15.975Z,25.47
2023-04-11T01:01:46.478Z,25.45
2023-04-11T01:02:16.950Z,25.41
2023-04-11T01:02:47.416Z,25.41
2023-04-11T01:03:18.039Z,25.42
2023-04-11T01:03:48.672Z,25.43
2023-04-11T01:04:19.189Z,25.44
2023-04-11T01:04:49.613Z,25.44
2023-04-11T01:05:20.056Z,25.44
2023-04-11T01:05:50.467Z,25.44
2023-04-11T01:06:20.889Z,25.45
2023-04-11T01:06:51.311Z,25.44
2023-04-11T01:07:21.736Z,25.43
2023-04-11T01:07:52.166Z,25.42
2023-04-11T01:08:22.582Z,25.42
2023-04-11T01:08:53.467Z,25.39
2023-04-11T01:09:24.117Z,25.40
2023-04-11T01:09:54.542Z,25.39
2023-04-11T01:10:24.958Z,25.38
2023-04-11T01:10:55.390Z,25.38
2023-04-11T01:11:25.813Z,25.41
2023-04-11T01:11:56.231Z,25.45
2023-04-11T01:12:26.653Z,25.47
2023-04-11T01:12:57.076Z,25.47
2023-04-11T01:13:27.505Z,25.43
2023-04-11T01:13:57.925Z,25.41
2023-04-11T01:14:28.357Z,25.42
2023-04-11T01:14:58.792Z,25.41
2023-04-11T01:15:29.210Z,25.42
2023-04-11T01:15:59.637Z,25.43
2023-04-11T01:16:30.102Z,25.44
2023-04-11T01:17:00.582Z,25.45
2023-04-11T01:17:31.053Z,25.48
2023-04-11T01:18:01.492Z,25.47
2023-04-11T01:18:31.870Z,25.48
2023-04-11T01:19:02.290Z,25.46
2023-04-11T01:19:32.710Z,25.46
2023-04-11T01:20:03.139Z,25.43
2023-04-11T01:20:33.580Z,25.41
2023-04-11T01:21:04.018Z,25.43
2023-04-11T01:21:34.429Z,25.44
2023-04-11T01:22:04.849Z,25.41
2023-04-11T01:22:35.269Z,25.39
2023-04-11T01:23:05.698Z,25.39
2023-04-11T01:23:36.130Z,25.39
2023-04-11T01:24:06.536Z,25.38
2023-04-11T01:24:36.966Z,25.37
2023-04-11T01:25:07.377Z,25.38
2023-04-11T01:25:37.801Z,25.37
2023-04-11T01:26:08.253Z,25.35
2023-04-11T01:26:38.675Z,25.33
2023-04-11T01:27:09.097Z,25.32
2023-04-11T01:27:39.517Z,25.30
2023-04-11T01:28:09.942Z,25.29
2023-04-11T01:28:40.361Z,25.29
2023-04-11T01:29:10.794Z,25.31
2023-04-11T01:29:41.214Z,25.30
2023-04-11T01:30:11.660Z,25.32
2023-04-11T01:30:42.116Z,25.33
2023-04-11T01:31:12.551Z,25.34
2023-04-11T01:31:42.943Z,25.35
2023-04-11T01:32:13.381Z,25.35
2023-04-11T01:32:43.839Z,25.34
2023-04-11T01:33:14.240Z,25.33
2023-04-11T01:33:44.660Z,25.33
2023-04-11T01:34:15.090Z,25.33
2023-04-11T01:34:45.509Z,25.33
2023-04-11T01:35:15.930Z,25.32
2023-04-11T01:35:46.411Z,25.32
2023-04-11T01:36:16.800Z,25.33
2023-04-11T01:36:47.228Z,25.34
2023-04-11T01:37:17.656Z,25.36
2023-04-11T01:37:48.067Z,25.39
2023-04-11T01:38:18.486Z,25.36
2023-04-11T01:38:48.914Z,25.37
2023-04-11T01:39:19.342Z,25.39
2023-04-11T01:39:49.760Z,25.41
2023-04-11T01:40:20.184Z,25.40
2023-04-11T01:40:50.613Z,25.40
2023-04-11T01:41:21.052Z,25.39
2023-04-11T01:41:51.474Z,25.40
2023-04-11T01:42:21.908Z,25.36
2023-04-11T01:42:52.315Z,25.36
2023-04-11T01:43:22.741Z,25.34
2023-04-11T01:43:53.158Z,25.35
2023-04-11T01:44:23.586Z,25.33
2023-04-11T01:44:53.996Z,25.33
2023-04-11T01:45:24.422Z,25.35
2023-04-11T01:45:54.857Z,25.36
2023-04-11T01:46:25.307Z,25.36
2023-04-11T01:46:55.734Z,25.37
2023-04-11T01:47:26.175Z,25.39
2023-04-11T01:47:56.727Z,25.37
2023-04-11T01:48:27.314Z,25.33
2023-04-11T01:48:58.040Z,25.32
2023-04-11T01:49:28.528Z,25.35
2023-04-11T01:49:58.946Z,25.34
2023-04-11T01:50:29.376Z,25.36
2023-04-11T01:50:59.817Z,25.37
2023-04-11T01:51:30.222Z,25.40
2023-04-11T01:52:00.647Z,25.40
2023-04-11T01:52:31.077Z,25.42
2023-04-11T01:53:01.500Z,25.42
2023-04-11T01:53:31.931Z,25.42
2023-04-11T01:54:02.341Z,25.42
2023-04-11T01:54:32.765Z,25.42
2023-04-11T01:55:03.182Z,25.44
2023-04-11T01:55:33.646Z,25.46
2023-04-11T01:56:04.054Z,25.45
2023-04-11T01:56:34.506Z,25.44
2023-04-11T01:57:04.925Z,25.42
2023-04-11T01:57:35.347Z,25.41
2023-04-11T01:58:05.767Z,25.38
2023-04-11T01:58:36.189Z,25.36
2023-04-11T01:59:06.615Z,25.35
2023-04-11T01:59:37.034Z,25.35
2023-04-11T02:00:07.452Z,25.36
2023-04-11T02:00:37.880Z,25.37
2023-04-11T02:01:08.328Z,25.39
2023-04-11T02:01:38.821Z,25.38
2023-04-11T02:02:09.478Z,25.35
2023-04-11T02:02:40.196Z,25.33
2023-04-11T02:03:10.820Z,25.31
2023-04-11T02:03:41.450Z,25.31
2023-04-11T02:04:12.053Z,25.31
2023-04-11T02:04:42.622Z,25.32
2023-04-11T02:05:13.048Z,25.34
2023-04-11T02:05:43.462Z,25.33
2023-04-11T02:06:13.902Z,25.31
2023-04-11T02:06:44.314Z,25.28
2023-04-11T02:07:14.774Z,25.28
2023-04-11T02:07:45.222Z,25.31
2023-04-11T02:08:15.649Z,25.28
2023-04-11T02:08:46.065Z,25.26
2023-04-11T02:09:16.487Z,25.25
2023-04-11T02:09:46.926Z,25.26
2023-04-11T02:10:17.351Z,25.26
2023-04-11T02:10:47.788Z,25.29
2023-04-11T02:11:18.220Z,25.31
2023-04-11T02:11:48.648Z,25.30
2023-04-11T02:12:19.065Z,25.32
2023-04-11T02:12:49.500Z,25.33
2023-04-11T02:13:19.928Z,25.34
2023-04-11T02:13:50.357Z,25.34
2023-04-11T02:14:20.774Z,25.32
2023-04-11T02:14:51.524Z,25.32
2023-04-11T02:15:21.949Z,25.30
2023-04-11T02:15:52.391Z,25.32
2023-04-11T02:16:22.857Z,25.34
2023-04-11T02:16:53.248Z,25.37
2023-04-11T02:17:23.744Z,25.36
2023-04-11T02:17:54.289Z,25.35
2023-04-11T02:18:24.709Z,25.37
2023-04-11T02:18:55.499Z,25.37
2023-04-11T02:19:26.230Z,25.33
2023-04-11T02:19:56.771Z,25.34
2023-04-11T02:20:27.194Z,25.34
2023-04-11T02:20:57.611Z,25.32
2023-04-11T02:21:28.059Z,25.30
2023-04-11T02:21:58.483Z,25.30
2023-04-11T02:22:28.903Z,25.29
2023-04-11T02:22:59.326Z,25.28
2023-04-11T02:23:29.749Z,25.30
2023-04-11T02:24:00.821Z,25.35
2023-04-11T02:24:31.328Z,25.38
2023-04-11T02:25:01.760Z,25.37
2023-04-11T02:25:32.180Z,25.36
2023-04-11T02:26:02.616Z,25.37
2023-04-11T02:26:33.031Z,25.39
2023-04-11T02:27:03.586Z,25.41
2023-04-11T02:27:34.020Z,25.40
2023-04-11T02:28:06.724Z,25.40
2023-04-11T02:28:38.416Z,25.39
2023-04-11T02:29:08.845Z,25.40
2023-04-11T02:29:39.280Z,25.41
2023-04-11T02:30:09.695Z,25.38
2023-04-11T02:30:40.190Z,25.40
2023-04-11T02:31:10.692Z,25.40
2023-04-11T02:31:41.327Z,25.38
2023-04-11T02:32:11.964Z,25.33
2023-04-11T02:32:42.540Z,25.30
2023-04-11T02:33:12.938Z,25.31
2023-04-11T02:33:43.366Z,25.34
2023-04-11T02:34:13.788Z,25.34
2023-04-11T02:34:44.225Z,25.31
2023-04-11T02:35:14.639Z,25.28
2023-04-11T02:35:45.064Z,25.27
2023-04-11T02:36:15.551Z,25.27
2023-04-11T02:36:45.932Z,25.28
2023-04-11T02:37:16.344Z,25.31
2023-04-11T02:37:46.781Z,25.32
2023-04-11T02:38:17.189Z,25.36
2023-04-11T02:38:47.607Z,25.35
2023-04-11T02:39:18.043Z,25.35
2023-04-11T02:39:48.462Z,25.32
2023-04-11T02:40:18.886Z,25.32
2023-04-11T02:40:49.312Z,25.33
2023-04-11T02:41:19.729Z,25.31
2023-04-11T02:41:50.149Z,25.29
2023-04-11T02:42:20.584Z,25.28
2023-04-11T02:42:51.008Z,25.30
2023-04-11T02:43:21.425Z,25.30
2023-04-11T02:43:51.849Z,25.31
2023-04-11T02:44:22.281Z,25.30
2023-04-11T02:44:52.709Z,25.32
2023-04-11T02:45:23.150Z,25.35
2023-04-11T02:46:02.070Z,25.32
2023-04-11T02:46:28.924Z,25.28
2023-04-11T02:46:59.371Z,25.29
2023-04-11T02:47:29.843Z,25.30
2023-04-11T02:48:00.303Z,25.34
2023-04-11T02:48:30.697Z,25.33
2023-04-11T02:49:01.131Z,25.31
2023-04-11T02:49:31.540Z,25.31
2023-04-11T02:50:01.970Z,25.35
2023-04-11T02:50:32.391Z,25.35
2023-04-11T02:51:02.803Z,25.36
2023-04-11T02:51:33.268Z,25.35
2023-04-11T02:52:03.700Z,25.33
2023-04-11T02:52:34.124Z,25.32
2023-04-11T02:53:04.549Z,25.31
2023-04-11T02:53:34.970Z,25.32
2023-04-11T02:54:05.387Z,25.28
2023-04-11T02:54:35.810Z,25.27
2023-04-11T02:55:06.248Z,25.25
2023-04-11T02:55:36.663Z,25.25
2023-04-11T02:56:07.088Z,25.27
2023-04-11T02:56:37.508Z,25.28
2023-04-11T02:57:07.928Z,25.31
2023-04-11T02:57:38.375Z,25.31
2023-04-11T02:58:08.800Z,25.33
2023-04-11T02:58:39.224Z,25.33
2023-04-11T02:59:09.643Z,25.34
2023-04-11T02:59:40.061Z,25.34
2023-04-11T03:00:10.513Z,25.37
2023-04-11T03:00:40.915Z,25.39
2023-04-11T03:01:11.334Z,25.41
2023-04-11T03:01:41.818Z,25.41
2023-04-11T03:02:12.326Z,25.39
2023-04-11T03:02:42.896Z,25.41
2023-04-11T03:03:13.538Z,25.42
2023-04-11T03:03:44.094Z,25.44
2023-04-11T03:04:14.614Z,25.42
2023-04-11T03:04:44.995Z,25.38
2023-04-11T03:05:15.408Z,25.36
2023-04-11T03:05:45.831Z,25.34
2023-04-11T03:06:16.261Z,25.31
2023-04-11T03:06:46.675Z,25.33
2023-04-11T03:07:17.154Z,25.34
2023-04-11T03:07:47.553Z,25.36
2023-04-11T03:08:18.016Z,25.39
2023-04-11T03:08:48.420Z,25.40
2023-04-11T03:09:18.857Z,25.40
2023-04-11T03:09:49.281Z,25.41
2023-04-11T03:10:19.702Z,25.41
2023-04-11T03:10:50.129Z,25.38
2023-04-11T03:11:20.555Z,25.35
2023-04-11T03:11:50.974Z,25.35
2023-04-11T03:12:21.393Z,25.34
2023-04-11T03:12:51.837Z,25.36
2023-04-11T03:13:22.268Z,25.38
2023-04-11T03:13:52.700Z,25.39
2023-04-11T03:14:23.122Z,25.38
2023-04-11T03:14:53.605Z,25.38
2023-04-11T03:15:23.980Z,25.36
2023-04-11T03:15:54.435Z,25.36
2023-04-11T03:16:24.913Z,25.36
2023-04-11T03:16:55.353Z,25.35
2023-04-11T03:17:25.827Z,25.38
2023-04-11T03:17:56.270Z,25.39
2023-04-11T03:18:26.664Z,25.39
2023-04-11T03:18:57.377Z,25.42
2023-04-11T03:19:27.901Z,25.43
2023-04-11T03:19:58.448Z,25.44
2023-04-11T03:20:28.855Z,25.40
2023-04-11T03:20:59.275Z,25.39
2023-04-11T03:21:29.705Z,25.38
2023-04-11T03:22:00.146Z,25.36
2023-04-11T03:22:30.556Z,25.35
2023-04-11T03:23:00.987Z,25.35
2023-04-11T03:23:31.419Z,25.35
2023-04-11T03:24:01.821Z,25.36
2023-04-11T03:24:32.288Z,25.37
2023-04-11T03:25:02.678Z,25.37
2023-04-11T03:25:33.101Z,25.37
2023-04-11T03:26:03.539Z,25.37
2023-04-11T03:26:33.939Z,25.35
2023-04-11T03:27:04.371Z,25.35
2023-04-11T03:27:34.791Z,25.37
2023-04-11T03:28:05.244Z,25.37
2023-04-11T03:28:35.683Z,25.34
2023-04-11T03:29:06.121Z,25.31
2023-04-11T03:29:36.548Z,25.30
2023-04-11T03:30:06.976Z,25.29
2023-04-11T03:30:37.389Z,25.31
2023-04-11T03:31:07.913Z,25.33
2023-04-11T03:31:38.365Z,25.35
2023-04-11T03:32:08.776Z,25.35
2023-04-11T03:32:39.240Z,25.37
2023-04-11T03:33:09.658Z,25.39
2023-04-11T03:33:40.067Z,25.42
2023-04-11T03:34:10.493Z,25.44
2023-04-11T03:34:40.917Z,25.42
2023-04-11T03:35:11.346Z,25.42
2023-04-11T03:35:41.785Z,25.43
2023-04-11T03:36:12.218Z,25.42
2023-04-11T03:36:42.614Z,25.43
2023-04-11T03:37:13.036Z,25.44
2023-04-11T03:37:43.481Z,25.41
2023-04-11T03:38:13.893Z,25.39
2023-04-11T03:38:44.315Z,25.38
2023-04-11T03:39:14.738Z,25.39
2023-04-11T03:39:45.178Z,25.40
2023-04-11T03:40:15.606Z,25.40
2023-04-11T03:40:46.018Z,25.40
2023-04-11T03:41:16.443Z,25.41
2023-04-11T03:41:46.869Z,25.41
2023-04-11T03:42:17.298Z,25.40
2023-04-11T03:42:47.723Z,25.36
2023-04-11T03:43:18.155Z,25.39
2023-04-11T03:43:48.588Z,25.41
2023-04-11T03:44:19.006Z,25.41
2023-04-11T03:44:49.423Z,25.40
2023-04-11T03:45:19.846Z,25.41
2023-04-11T03:45:50.271Z,25.40
2023-04-11T03:46:20.703Z,25.38
2023-04-11T03:46:51.204Z,25.39
2023-04-11T03:47:21.580Z,25.40
2023-04-11T03:47:52.100Z,25.42
2023-04-11T03:48:22.546Z,25.36
2023-04-11T03:48:52.965Z,25.35
2023-04-11T03:49:23.397Z,25.33
2023-04-11T03:49:53.811Z,25.34
2023-04-11T03:50:24.232Z,25.34
2023-04-11T03:50:54.670Z,25.35
2023-04-11T03:51:25.095Z,25.35
2023-04-11T03:51:55.514Z,25.37
2023-04-11T03:52:25.945Z,25.37
2023-04-11T03:52:56.451Z,25.40
2023-04-11T03:53:26.823Z,25.42
2023-04-11T03:53:57.246Z,25.42
2023-04-11T03:54:27.675Z,25.44
2023-04-11T03:54:58.101Z,25.40
2023-04-11T03:55:28.540Z,25.41
2023-04-11T03:55:58.956Z,25.42
2023-04-11T03:56:29.383Z,25.42
2023-04-11T03:56:59.838Z,25.39
2023-04-11T03:57:30.217Z,25.37
2023-04-11T03:58:00.640Z,25.36
2023-04-11T03:58:31.083Z,25.36
2023-04-11T03:59:01.516Z,25.36
2023-04-11T03:59:31.943Z,25.34
2023-04-11T04:00:02.381Z,25.33
2023-04-11T04:00:32.790Z,25.34
2023-04-11T04:01:03.204Z,25.33
2023-04-11T04:01:33.632Z,25.34
2023-04-11T04:02:04.162Z,25.37
2023-04-11T04:02:34.648Z,25.38
2023-04-11T04:03:05.189Z,25.36
2023-04-11T04:03:35.891Z,25.36
2023-04-11T04:04:06.444Z,25.35
2023-04-11T04:04:36.955Z,25.37
2023-04-11T04:05:07.460Z,25.38
2023-04-11T04:05:37.933Z,25.39
2023-04-11T04:06:08.356Z,25.40
2023-04-11T04:06:38.781Z,25.39
2023-04-11T04:07:09.195Z,25.37
2023-04-11T04:07:39.623Z,25.37
2023-04-11T04:08:10.067Z,25.37
2023-04-11T04:08:40.481Z,25.34
2023-04-11T04:09:10.902Z,25.31
2023-04-11T04:09:41.325Z,25.33
2023-04-11T04:10:11.748Z,25.34
2023-04-11T04:10:42.172Z,25.36
2023-04-11T04:11:12.592Z,25.38
2023-04-11T04:11:43.015Z,25.38
2023-04-11T04:12:13.438Z,25.36
2023-04-11T04:12:43.873Z,25.35
2023-04-11T04:13:14.291Z,25.35
2023-04-11T04:13:44.736Z,25.33
2023-04-11T04:14:15.161Z,25.33
2023-04-11T04:14:45.599Z,25.30
2023-04-11T04:15:15.998Z,25.31
2023-04-11T04:15:46.441Z,25.31
2023-04-11T04:16:16.871Z,25.29
2023-04-11T04:16:47.360Z,25.30
2023-04-11T04:17:17.736Z,25.32
2023-04-11T04:17:48.155Z,25.32
2023-04-11T04:18:18.571Z,25.31
2023-04-11T04:18:49.007Z,25.29
2023-04-11T04:19:19.429Z,25.31
2023-04-11T04:19:49.855Z,25.33
2023-04-11T04:20:20.284Z,25.31
2023-04-11T04:20:50.705Z,25.34
2023-04-11T04:21:21.138Z,25.36
2023-04-11T04:21:51.560Z,25.37
2023-04-11T04:22:21.980Z,25.37
2023-04-11T04:22:52.414Z,25.37
2023-04-11T04:23:22.854Z,25.37
2023-04-11T04:23:53.302Z,25.34
2023-04-11T04:24:23.737Z,25.31
2023-04-11T04:24:54.193Z,25.30
2023-04-11T04:25:25.928Z,25.29
2023-04-11T04:25:56.485Z,25.30
2023-04-11T04:26:26.909Z,25.30
2023-04-11T04:26:57.334Z,25.33
2023-04-11T04:27:27.750Z,25.34
2023-04-11T04:27:58.366Z,25.33
2023-04-11T04:28:28.754Z,25.31
2023-04-11T04:28:59.191Z,25.29
2023-04-11T04:29:29.627Z,25.28
2023-04-11T04:30:04.243Z,25.28
2023-04-11T04:30:35.104Z,25.28
2023-04-11T04:31:05.561Z,25.27
2023-04-11T04:31:35.996Z,25.27
2023-04-11T04:32:06.487Z,25.31
2023-04-11T04:32:36.901Z,25.31
2023-04-11T04:33:07.442Z,25.30
2023-04-11T04:33:37.866Z,25.28
2023-04-11T04:34:08.294Z,25.27
2023-04-11T04:34:38.717Z,25.28
2023-04-11T04:35:09.134Z,25.29
2023-04-11T04:35:39.588Z,25.28
2023-04-11T04:36:10.071Z,25.29
2023-04-11T04:36:40.562Z,25.31
2023-04-11T04:37:10.998Z,25.30
2023-04-11T04:37:41.405Z,25.29
2023-04-11T04:38:11.825Z,25.30
2023-04-11T04:38:42.377Z,25.28
2023-04-11T04:39:12.749Z,25.27
2023-04-11T04:39:43.171Z,25.25
2023-04-11T04:40:13.597Z,25.25
2023-04-11T04:40:44.024Z,25.25
2023-04-11T04:41:14.438Z,25.26
2023-04-11T04:41:44.863Z,25.25
2023-04-11T04:42:15.285Z,25.25
2023-04-11T04:42:45.706Z,25.27
2023-04-11T04:43:16.142Z,25.28
2023-04-11T04:43:46.574Z,25.26
2023-04-11T04:44:17.020Z,25.26
2023-04-11T04:44:47.421Z,25.26
2023-04-11T04:45:17.856Z,25.25
2023-04-11T04:45:48.313Z,25.28
2023-04-11T04:46:18.736Z,25.27
2023-04-11T04:46:49.140Z,25.26
2023-04-11T04:47:19.581Z,25.28
2023-04-11T04:47:50.008Z,25.27
2023-04-11T04:48:20.420Z,25.27
2023-04-11T04:48:50.847Z,25.28
2023-04-11T04:49:21.283Z,25.27
2023-04-11T04:49:51.706Z,25.28
2023-04-11T04:50:22.127Z,25.28
2023-04-11T04:50:52.547Z,25.27
2023-04-11T04:51:22.971Z,25.28
2023-04-11T04:51:53.391Z,25.27
2023-04-11T04:52:23.812Z,25.26
2023-04-11T04:52:54.238Z,25.27
2023-04-11T04:53:24.674Z,25.27
2023-04-11T04:53:55.378Z,25.27
2023-04-11T04:54:26.022Z,25.28
2023-04-11T04:54:56.445Z,25.29
2023-04-11T04:55:26.862Z,25.31
2023-04-11T04:55:57.284Z,25.33
2023-04-11T04:56:27.709Z,25.33
2023-04-11T04:56:58.131Z,25.34
2023-04-11T04:57:28.579Z,25.33
2023-04-11T04:57:58.978Z,25.33
2023-04-11T04:58:29.408Z,25.33
2023-04-11T04:58:59.834Z,25.32
2023-04-11T04:59:30.274Z,25.31
2023-04-11T05:00:00.695Z,25.32
2023-04-11T05:00:31.119Z,25.32
2023-04-11T05:01:01.644Z,25.31
2023-04-11T05:01:32.050Z,25.31
2023-04-11T05:02:02.514Z,25.30
2023-04-11T05:02:33.064Z,25.29
2023-04-11T05:03:03.630Z,25.30
2023-04-11T05:03:34.294Z,25.31
2023-04-11T05:04:04.913Z,25.33
2023-04-11T05:04:35.344Z,25.31
2023-04-11T05:05:05.773Z,25.31
2023-04-11T05:05:36.192Z,25.32
2023-04-11T05:06:06.614Z,25.32
2023-04-11T05:06:37.058Z,25.31
2023-04-11T05:07:07.469Z,25.32
2023-04-11T05:07:37.889Z,25.31
2023-04-11T05:08:08.320Z,25.32
2023-04-11T05:08:38.740Z,25.32
2023-04-11T05:09:09.184Z,25.32
2023-04-11T05:09:39.746Z,25.32
2023-04-11T05:10:10.176Z,25.32
2023-04-11T05:10:40.592Z,25.32
2023-04-11T05:11:11.014Z,25.34
2023-04-11T05:11:41.429Z,25.33
2023-04-11T05:12:11.854Z,25.33
2023-04-11T05:12:42.275Z,25.34
2023-04-11T05:13:12.693Z,25.34
2023-04-11T05:13:43.111Z,25.35
2023-04-11T05:14:13.549Z,25.36
2023-04-11T05:14:44.042Z,25.37
2023-04-11T05:15:14.476Z,25.36
2023-04-11T05:15:44.894Z,25.36
2023-04-11T05:16:15.348Z,25.36
2023-04-11T05:16:45.772Z,25.35
2023-04-11T05:17:16.192Z,25.36
2023-04-11T05:17:46.647Z,25.32
2023-04-11T05:18:17.035Z,25.33
2023-04-11T05:18:47.472Z,25.35
2023-04-11T05:19:17.890Z,25.36
2023-04-11T05:19:48.346Z,25.35
2023-04-11T05:20:18.763Z,25.36
2023-04-11T05:20:49.176Z,25.38
2023-04-11T05:21:19.612Z,25.40
2023-04-11T05:21:50.021Z,25.40
2023-04-11T05:22:20.445Z,25.39
2023-04-11T05:22:50.926Z,25.38
2023-04-11T05:23:21.305Z,25.38
2023-04-11T05:23:51.727Z,25.38
2023-04-11T05:24:22.170Z,25.38
2023-04-11T05:24:52.588Z,25.37
2023-04-11T05:25:23.013Z,25.38
2023-04-11T05:25:53.434Z,25.38
2023-04-11T05:26:23.863Z,25.38
2023-04-11T05:26:54.283Z,25.38
2023-04-11T05:27:24.701Z,25.39
2023-04-11T05:27:55.124Z,25.38
2023-04-11T05:28:25.547Z,25.41
2023-04-11T05:28:55.972Z,25.39
2023-04-11T05:29:26.391Z,25.38
2023-04-11T05:29:56.847Z,25.38
2023-04-11T05:30:27.280Z,25.36
2023-04-11T05:30:57.702Z,25.38
2023-04-11T05:31:28.145Z,25.39
2023-04-11T05:31:58.537Z,25.39
2023-04-11T05:32:28.992Z,25.39
2023-04-11T05:32:59.475Z,25.38
2023-04-11T05:33:29.859Z,25.38
2023-04-11T05:34:00.280Z,25.39
2023-04-11T05:34:30.704Z,25.40
2023-04-11T05:35:01.160Z,25.39
2023-04-11T05:35:31.615Z,25.39
2023-04-11T05:36:02.044Z,25.40
2023-04-11T05:36:32.434Z,25.39
2023-04-11T05:37:02.871Z,25.39
2023-04-11T05:37:33.294Z,25.39
2023-04-11T05:38:03.718Z,25.39
2023-04-11T05:38:34.160Z,25.38
2023-04-11T05:39:04.576Z,25.39
2023-04-11T05:39:35.056Z,25.40
2023-04-11T05:40:05.451Z,25.41
2023-04-11T05:40:35.871Z,25.40
2023-04-11T05:41:06.293Z,25.40
2023-04-11T05:41:36.712Z,25.42
2023-04-11T05:42:08.026Z,25.40
2023-04-11T05:42:38.478Z,25.40
2023-04-11T05:43:08.899Z,25.39
2023-04-11T05:43:39.325Z,25.39
2023-04-11T05:44:09.755Z,25.41
2023-04-11T05:44:40.208Z,25.39
2023-04-11T05:45:10.644Z,25.39
2023-04-11T05:45:41.124Z,25.39
2023-04-11T05:46:11.545Z,25.39
2023-04-11T05:46:41.968Z,25.39
2023-04-11T05:47:12.390Z,25.40
2023-04-11T05:47:42.867Z,25.41
2023-04-11T05:48:15.510Z,25.41
2023-04-11T05:48:46.447Z,25.40
2023-04-11T05:49:16.889Z,25.40
2023-04-11T05:49:47.289Z,25.41
2023-04-11T05:50:17.759Z,25.41
2023-04-11T05:50:48.173Z,25.42
2023-04-11T05:51:18.581Z,25.41
2023-04-11T05:51:49.022Z,25.41
2023-04-11T05:52:19.473Z,25.41
2023-04-11T05:52:49.862Z,25.41
2023-04-11T05:53:20.303Z,25.41
2023-04-11T05:53:50.708Z,25.41
2023-04-11T05:54:21.127Z,25.41
2023-04-11T05:54:51.569Z,25.41
2023-04-11T05:55:22.023Z,25.41
2023-04-11T05:55:52.436Z,25.41
2023-04-11T05:56:22.859Z,25.42
2023-04-11T05:56:53.282Z,25.42
2023-04-11T05:57:23.713Z,25.40
2023-04-11T05:57:54.138Z,25.41
2023-04-11T05:58:24.562Z,25.42
2023-04-11T05:58:54.979Z,25.42
2023-04-11T05:59:27.714Z,25.43
2023-04-11T05:59:59.204Z,25.43
2023-04-11T06:00:29.638Z,25.45
2023-04-11T06:01:00.114Z,25.43
2023-04-11T06:01:30.515Z,25.45
2023-04-11T06:02:00.988Z,25.44
2023-04-11T06:02:31.529Z,25.46
2023-04-11T06:03:02.148Z,25.43
2023-04-11T06:03:32.788Z,25.44
2023-04-11T06:04:03.468Z,25.45
2023-04-11T06:04:34.299Z,25.11
2023-04-11T06:05:04.963Z,23.52
2023-04-11T06:05:35.405Z,22.63
2023-04-11T06:06:05.808Z,21.84
2023-04-11T06:06:36.235Z,21.74
2023-04-11T06:07:06.657Z,21.57
2023-04-11T06:07:37.094Z,20.25
2023-04-11T06:08:07.515Z,19.49
2023-04-11T06:08:37.944Z,18.80
2023-04-11T06:09:08.362Z,18.36
2023-04-11T06:09:38.802Z,18.19
2023-04-11T06:10:09.250Z,18.16
2023-04-11T06:10:39.673Z,17.93
2023-04-11T06:11:10.109Z,17.81
2023-04-11T06:11:40.531Z,17.54
2023-04-11T06:12:10.965Z,17.45
2023-04-11T06:12:41.379Z,17.76
2023-04-11T06:13:11.810Z,17.71
2023-04-11T06:13:42.242Z,17.32
2023-04-11T06:14:12.657Z,16.96
2023-04-11T06:14:43.092Z,16.99
2023-04-11T06:15:13.501Z,17.03
2023-04-11T06:15:43.978Z,17.21
2023-04-11T06:16:14.370Z,17.42
2023-04-11T06:16:44.789Z,17.26
2023-04-11T06:17:15.208Z,17.08
2023-04-11T06:17:45.670Z,17.23
2023-04-11T06:18:16.085Z,17.72
2023-04-11T06:18:46.484Z,17.47
2023-04-11T06:19:16.915Z,17.49
2023-04-11T06:19:47.327Z,17.68
2023-04-11T06:20:17.768Z,17.51
2023-04-11T06:20:48.205Z,17.60
2023-04-11T06:21:18.632Z,17.55
2023-04-11T06:21:49.056Z,17.15
2023-04-11T06:22:19.471Z,15.60
2023-04-11T06:22:49.896Z,14.21
2023-04-11T06:23:20.324Z,13.52
2023-04-11T06:23:50.759Z,13.50
2023-04-11T06:24:21.174Z,13.03
2023-04-11T06:24:51.650Z,13.01
2023-04-11T06:25:22.177Z,12.98
2023-04-11T06:25:52.592Z,12.59
2023-04-11T06:26:23.011Z,12.25
2023-04-11T06:26:53.456Z,12.03
2023-04-11T06:27:23.908Z,11.89
2023-04-11T06:27:54.333Z,12.05
2023-04-11T06:28:24.749Z,12.03
2023-04-11T06:28:55.175Z,11.91
2023-04-11T06:29:25.603Z,11.85
2023-04-11T06:29:56.034Z,11.64
2023-04-11T06:30:26.452Z,11.56
2023-04-11T06:30:56.922Z,11.46
2023-04-11T06:31:27.358Z,11.54
2023-04-11T06:31:57.767Z,11.37
2023-04-11T06:32:28.218Z,11.31